createdAt,value
2022-10-15T00:01:23.971Z,100488.13
2022-10-15T00:03:51.065Z,100487.31
2022-10-15T00:06:21.305Z,100489.72
2022-10-15T00:08:48.980Z,100484.06
2022-10-15T00:11:23.049Z,100482.72
2022-10-15T00:13:53.273Z,100474.09
2022-10-15T00:16:23.999Z,100479.19
2022-10-15T00:18:52.283Z,100470.31
2022-10-15T00:21:21.376Z,100452.00
2022-10-15T00:23:49.474Z,100445.50
2022-10-15T00:26:21.197Z,100449.78
2022-10-15T00:28:51.584Z,100444.41
2022-10-15T00:31:24.461Z,100438.22
2022-10-15T00:33:55.475Z,100454.94
2022-10-15T00:36:33.554Z,100442.25
2022-10-15T00:39:01.430Z,100434.19
2022-10-15T00:41:34.833Z,100441.44
2022-10-15T00:44:25.329Z,100433.38
2022-10-15T00:47:39.416Z,100444.44
2022-10-15T00:50:28.896Z,100437.16
2022-10-15T00:53:09.059Z,100443.63
2022-10-15T00:55:41.641Z,100447.94
2022-10-15T00:58:18.140Z,100444.16
2022-10-15T01:00:45.520Z,100436.34
2022-10-15T01:03:12.754Z,100427.19
2022-10-15T01:05:41.073Z,100420.72
2022-10-15T01:08:11.134Z,100413.16
2022-10-15T01:11:22.076Z,100413.97
2022-10-15T01:14:19.481Z,100411.28
2022-10-15T01:17:10.350Z,100407.25
2022-10-15T01:19:59.042Z,100396.22
2022-10-15T01:23:01.159Z,100395.69
2022-10-15T01:26:18.334Z,100390.84
2022-10-15T01:29:41.741Z,100386.53
2022-10-15T01:32:38.833Z,100393.81
2022-10-15T01:35:06.345Z,100386.00
2022-10-15T01:37:49.372Z,100376.28
2022-10-15T01:40:22.300Z,100382.19
2022-10-15T01:43:03.912Z,100383.28
2022-10-15T01:45:49.694Z,100378.16
2022-10-15T01:48:25.740Z,100370.09
2022-10-15T01:51:01.269Z,100381.91
2022-10-15T01:53:29.604Z,100377.34
2022-10-15T01:56:01.220Z,100375.97
2022-10-15T01:58:31.063Z,100365.19
2022-10-15T02:00:59.231Z,100365.72
2022-10-15T02:03:26.779Z,100374.88
2022-10-15T02:06:09.782Z,100364.91
2022-10-15T02:08:58.139Z,100363.00
2022-10-15T02:11:25.281Z,100355.22
2022-10-15T02:14:09.462Z,100365.72
2022-10-15T02:16:55.056Z,100353.84
2022-10-15T02:19:32.745Z,100349.00
2022-10-15T02:22:09.511Z,100348.47
2022-10-15T02:24:44.316Z,100333.34
2022-10-15T02:27:14.023Z,100334.97
2022-10-15T02:29:46.461Z,100332.78
2022-10-15T02:32:19.956Z,100333.59
2022-10-15T02:34:50.394Z,100337.38
2022-10-15T02:37:22.524Z,100343.59
2022-10-15T02:39:49.732Z,100351.13
2022-10-15T02:42:18.605Z,100334.69
2022-10-15T02:44:47.922Z,100340.09
2022-10-15T02:47:15.450Z,100327.69
2022-10-15T02:49:42.264Z,100332.25
2022-10-15T02:52:10.304Z,100331.69
2022-10-15T02:54:37.110Z,100323.38
2022-10-15T02:57:04.240Z,100309.38
2022-10-15T02:59:31.283Z,100311.50
2022-10-15T03:01:59.400Z,100323.59
2022-10-15T03:04:27.393Z,100334.63
2022-10-15T03:06:55.059Z,100336.53
2022-10-15T03:09:22.685Z,100331.38
2022-10-15T03:11:49.759Z,100331.66
2022-10-15T03:14:17.661Z,100325.72
2022-10-15T03:16:44.659Z,100318.72
2022-10-15T03:19:12.149Z,100320.59
2022-10-15T03:21:40.200Z,100317.09
2022-10-15T03:24:11.761Z,100323.25
2022-10-15T03:26:38.594Z,100334.84
2022-10-15T03:29:06.069Z,100327.28
2022-10-15T03:31:38.183Z,100315.16
2022-10-15T03:34:06.098Z,100305.75
2022-10-15T03:36:33.275Z,100295.25
2022-10-15T03:39:00.997Z,100296.84
2022-10-15T03:41:28.069Z,100299.31
2022-10-15T03:43:55.537Z,100303.09
2022-10-15T03:46:24.624Z,100304.44
2022-10-15T03:48:51.620Z,100299.09
2022-10-15T03:51:24.365Z,100308.81
2022-10-15T03:53:57.756Z,100306.94
2022-10-15T03:56:24.832Z,100293.22
2022-10-15T03:58:55.203Z,100310.19
2022-10-15T04:01:22.495Z,100296.50
2022-10-15T04:03:54.798Z,100302.41
2022-10-15T04:06:24.877Z,100307.81
2022-10-15T04:08:53.209Z,100304.31
2022-10-15T04:11:24.020Z,100306.19
2022-10-15T04:14:01.454Z,100300.28
2022-10-15T04:16:30.146Z,100302.41
2022-10-15T04:18:58.706Z,100302.66
2022-10-15T04:21:26.359Z,100310.19
2022-10-15T04:24:21.870Z,100314.50
2022-10-15T04:29:42.716Z,100312.09
2022-10-15T04:32:15.271Z,100311.81
2022-10-15T04:34:43.237Z,100311.81
2022-10-15T04:37:10.632Z,100309.38
2022-10-15T04:39:37.998Z,100305.88
2022-10-15T04:42:05.288Z,100309.41
2022-10-15T04:44:34.025Z,100316.94
2022-10-15T04:47:02.492Z,100314.81
2022-10-15T04:49:48.560Z,100312.13
2022-10-15T04:52:50.303Z,100311.28
2022-10-15T04:55:18.486Z,100315.31
2022-10-15T04:57:45.297Z,100316.13
2022-10-15T05:00:13.456Z,100312.34
2022-10-15T05:03:18.704Z,100324.22
2022-10-15T05:05:51.159Z,100317.72
2022-10-15T05:08:18.445Z,100311.78
2022-10-15T05:11:04.394Z,100319.31
2022-10-15T05:13:33.755Z,100321.97
2022-10-15T05:16:28.498Z,100317.66
2022-10-15T05:19:00.913Z,100318.47
2022-10-15T05:21:31.420Z,100318.97
2022-10-15T05:24:01.601Z,100315.47
2022-10-15T05:26:49.275Z,100322.47
2022-10-15T05:29:16.368Z,100308.44
2022-10-15T05:31:43.340Z,100320.00
2022-10-15T05:34:15.975Z,100324.03
2022-10-15T05:36:48.692Z,100316.22
2022-10-15T05:39:16.355Z,100324.84
2022-10-15T05:41:45.064Z,100342.38
2022-10-15T05:44:12.292Z,100339.66
2022-10-15T05:46:39.214Z,100345.06
2022-10-15T05:49:06.131Z,100336.16
2022-10-15T05:51:45.259Z,100338.59
2022-10-15T05:54:19.058Z,100343.16
2022-10-15T05:56:46.176Z,100348.84
2022-10-15T05:59:13.125Z,100334.28
2022-10-15T06:01:40.327Z,100343.97
2022-10-15T06:04:07.445Z,100349.34
2022-10-15T06:06:35.590Z,100354.19
2022-10-15T06:09:02.386Z,100364.94
2022-10-15T06:11:29.289Z,100352.50
2022-10-15T06:13:56.523Z,100357.06
2022-10-15T06:16:24.166Z,100363.78
2022-10-15T06:18:54.517Z,100370.00
2022-10-15T06:21:21.584Z,100370.75
2022-10-15T06:23:48.669Z,100365.38
2022-10-15T06:26:16.132Z,100367.50
2022-10-15T06:28:48.332Z,100363.44
2022-10-15T06:31:15.490Z,100366.91
2022-10-15T06:33:42.540Z,100373.06
2022-10-15T06:36:13.833Z,100374.41
2022-10-15T06:38:44.648Z,100366.81
2022-10-15T06:41:11.581Z,100364.59
2022-10-15T06:43:38.979Z,100373.44
2022-10-15T06:46:06.993Z,100365.28
2022-10-15T06:48:34.566Z,100374.34
2022-10-15T06:51:02.935Z,100370.69
2022-10-15T06:53:31.176Z,100383.50
2022-10-15T06:56:00.177Z,100386.56
2022-10-15T06:58:28.330Z,100383.09
2022-10-15T07:01:05.221Z,100383.16
2022-10-15T07:03:32.902Z,100386.78
2022-10-15T07:06:05.264Z,100379.81
2022-10-15T07:08:33.145Z,100393.63
2022-10-15T07:11:06.142Z,100396.94
2022-10-15T07:13:33.395Z,100399.31
2022-10-15T07:16:09.553Z,100409.47
2022-10-15T07:18:37.320Z,100405.06
2022-10-15T07:21:06.785Z,100409.03
2022-10-15T07:23:34.061Z,100413.63
2022-10-15T07:26:01.488Z,100418.97
2022-10-15T07:28:28.730Z,100420.00
2022-10-15T07:31:00.673Z,100403.22
2022-10-15T07:33:27.760Z,100407.63
2022-10-15T07:35:59.598Z,100397.16
2022-10-15T07:38:26.800Z,100400.47
2022-10-15T07:40:57.848Z,100394.03
2022-10-15T07:43:30.232Z,100392.34
2022-10-15T07:45:57.189Z,100400.09
2022-10-15T07:48:25.016Z,100404.03
2022-10-15T07:51:04.005Z,100407.09
2022-10-15T07:53:32.076Z,100401.66
2022-10-15T07:56:07.793Z,100400.41
2022-10-15T07:58:36.168Z,100389.22
2022-10-15T08:01:05.228Z,100392.97
2022-10-15T08:03:32.593Z,100391.31
2022-10-15T08:06:07.952Z,100392.19
2022-10-15T08:08:36.764Z,100393.09
2022-10-15T08:11:10.013Z,100378.84
2022-10-15T08:13:41.164Z,100376.69
2022-10-15T08:16:13.841Z,100377.56
2022-10-15T08:18:47.263Z,100378.75
2022-10-15T08:21:14.180Z,100387.16
2022-10-15T08:23:41.436Z,100387.88
2022-10-15T08:26:08.414Z,100381.84
2022-10-15T08:28:36.428Z,100380.25
2022-10-15T08:31:05.951Z,100386.03
2022-10-15T08:33:35.119Z,100385.31
2022-10-15T08:36:03.924Z,100387.16
2022-10-15T08:38:31.712Z,100389.66
2022-10-15T08:41:01.187Z,100381.50
2022-10-15T08:43:42.194Z,100385.91
2022-10-15T08:46:25.925Z,100377.09
2022-10-15T08:48:55.560Z,100391.03
2022-10-15T08:51:26.858Z,100388.97
2022-10-15T08:54:17.021Z,100385.16
2022-10-15T08:56:49.441Z,100377.22
2022-10-15T08:59:41.760Z,100384.22
2022-10-15T09:05:32.007Z,100402.00
2022-10-15T09:08:10.592Z,100405.13
2022-10-15T09:11:05.518Z,100408.38
2022-10-15T09:13:41.161Z,100405.19
2022-10-15T09:16:28.332Z,100420.63
2022-10-15T09:18:58.358Z,100412.25
2022-10-15T09:21:26.267Z,100421.06
2022-10-15T09:24:00.704Z,100403.72
2022-10-15T09:26:55.865Z,100412.16
2022-10-15T09:29:39.541Z,100414.63
2022-10-15T09:32:31.655Z,100401.50
2022-10-15T09:35:22.812Z,100390.97
2022-10-15T09:38:43.177Z,100394.22
2022-10-15T09:41:32.743Z,100391.13
2022-10-15T09:44:03.663Z,100402.31
2022-10-15T09:46:49.771Z,100397.59
2022-10-15T09:49:29.385Z,100397.72
2022-10-15T09:52:30.530Z,100398.97
2022-10-15T09:55:23.629Z,100408.88
2022-10-15T09:57:58.667Z,100396.78
2022-10-15T10:00:26.129Z,100406.84
2022-10-15T10:03:07.073Z,100391.00
2022-10-15T10:05:37.201Z,100395.63
2022-10-15T10:08:16.206Z,100396.41
2022-10-15T10:10:46.063Z,100403.41
2022-10-15T10:13:32.193Z,100400.00
2022-10-15T10:16:09.564Z,100390.19
2022-10-15T10:18:37.811Z,100394.06
2022-10-15T10:21:28.671Z,100392.03
2022-10-15T10:23:55.920Z,100409.84
2022-10-15T10:26:22.732Z,100400.38
2022-10-15T10:28:56.929Z,100405.91
2022-10-15T10:31:42.188Z,100408.38
2022-10-15T10:34:25.398Z,100406.19
2022-10-15T10:36:53.697Z,100397.00
2022-10-15T10:39:32.839Z,100387.03
2022-10-15T10:42:07.262Z,100407.72
2022-10-15T10:44:40.840Z,100407.81
2022-10-15T10:47:18.626Z,100409.78
2022-10-15T10:49:49.304Z,100400.56
2022-10-15T10:52:25.705Z,100409.63
2022-10-15T10:55:26.454Z,100406.59
2022-10-15T10:57:56.232Z,100412.97
2022-10-15T11:00:44.296Z,100417.34
2022-10-15T11:03:33.288Z,100417.53
2022-10-15T11:06:30.048Z,100415.66
2022-10-15T11:09:36.390Z,100421.59
2022-10-15T11:12:12.388Z,100426.00
2022-10-15T11:14:52.646Z,100417.41
2022-10-15T11:17:57.643Z,100427.97
2022-10-15T11:21:05.969Z,100415.16
2022-10-15T11:24:10.181Z,100427.47
2022-10-15T11:27:13.539Z,100423.72
2022-10-15T11:30:05.531Z,100424.34
2022-10-15T11:33:53.071Z,100414.16
2022-10-15T11:36:22.388Z,100412.03
2022-10-15T11:39:45.716Z,100418.88
2022-10-15T11:42:30.388Z,100417.47
2022-10-15T11:45:16.705Z,100407.19
2022-10-15T11:48:21.041Z,100406.69
2022-10-15T11:51:04.306Z,100411.91
2022-10-15T11:53:33.503Z,100403.66
2022-10-15T11:56:28.639Z,100404.06
2022-10-15T11:59:04.477Z,100404.75
2022-10-15T12:01:39.292Z,100396.44
2022-10-15T12:04:38.908Z,100387.09
2022-10-15T12:07:14.209Z,100394.84
2022-10-15T12:09:47.390Z,100392.59
2022-10-15T12:12:48.701Z,100388.75
2022-10-15T12:15:39.351Z,100395.19
2022-10-15T12:18:31.863Z,100391.28
2022-10-15T12:20:59.081Z,100382.63
2022-10-15T12:23:40.515Z,100389.56
2022-10-15T12:26:29.101Z,100374.72
2022-10-15T12:29:00.766Z,100375.19
2022-10-15T12:31:53.882Z,100389.97
2022-10-15T12:34:30.555Z,100394.13
2022-10-15T12:37:17.659Z,100393.00
2022-10-15T12:39:53.510Z,100392.03
2022-10-15T12:42:36.896Z,100400.28
2022-10-15T12:45:08.666Z,100402.53
2022-10-15T12:48:13.733Z,100410.03
2022-10-15T12:50:44.066Z,100408.97
2022-10-15T12:56:38.487Z,100418.69
2022-10-15T12:59:44.692Z,100410.69
2022-10-15T13:02:45.683Z,100410.19
2022-10-15T13:05:36.242Z,100406.72
2022-10-15T13:08:12.965Z,100413.34
2022-10-15T13:10:48.777Z,100408.34
2022-10-15T13:13:23.246Z,100411.41
2022-10-15T13:15:59.145Z,100412.72
2022-10-15T13:18:55.830Z,100405.97
2022-10-15T13:21:23.233Z,100406.97
2022-10-15T13:23:52.040Z,100409.22
2022-10-15T13:26:22.136Z,100403.94
2022-10-15T13:28:53.072Z,100396.75
2022-10-15T13:31:31.114Z,100419.69
2022-10-15T13:34:27.766Z,100406.38
2022-10-15T13:36:58.074Z,100407.03
2022-10-15T13:39:37.611Z,100410.41
2022-10-15T13:42:23.017Z,100400.41
2022-10-15T13:45:18.334Z,100410.50
2022-10-15T13:47:54.633Z,100401.69
2022-10-15T13:50:31.861Z,100401.03
2022-10-15T13:53:07.284Z,100414.31
2022-10-15T13:55:39.282Z,100412.72
2022-10-15T14:01:25.937Z,100408.69
2022-10-15T14:04:22.749Z,100413.31
2022-10-15T14:07:02.417Z,100420.38
2022-10-15T14:09:38.447Z,100404.84
2022-10-15T14:12:07.672Z,100415.44
2022-10-15T14:14:39.238Z,100417.06
2022-10-15T14:17:13.227Z,100401.50
2022-10-15T14:19:40.585Z,100391.56
2022-10-15T14:22:07.845Z,100410.31
2022-10-15T14:24:38.403Z,100408.41
2022-10-15T14:27:16.728Z,100423.28
2022-10-15T14:29:46.938Z,100405.13
2022-10-15T14:32:26.212Z,100411.22
2022-10-15T14:34:58.852Z,100420.75
2022-10-15T14:38:10.908Z,100406.09
2022-10-15T14:40:38.146Z,100413.63
2022-10-15T14:43:17.550Z,100411.06
2022-10-15T14:45:50.769Z,100418.44
2022-10-15T14:48:47.222Z,100428.06
2022-10-15T14:51:23.773Z,100428.88
2022-10-15T14:53:52.191Z,100410.91
2022-10-15T14:56:29.507Z,100417.53
2022-10-15T14:58:58.417Z,100414.97
2022-10-15T15:01:27.530Z,100420.69
2022-10-15T15:03:56.908Z,100424.03
2022-10-15T15:06:24.224Z,100424.19
2022-10-15T15:08:51.208Z,100421.75
2022-10-15T15:11:21.624Z,100434.88
2022-10-15T15:13:49.820Z,100435.63
2022-10-15T15:16:18.089Z,100424.38
2022-10-15T15:18:46.411Z,100425.31
2022-10-15T15:21:21.845Z,100429.91
2022-10-15T15:23:49.112Z,100440.25
2022-10-15T15:26:15.937Z,100434.34
2022-10-15T15:28:43.248Z,100438.81
2022-10-15T15:31:17.228Z,100434.78
2022-10-15T15:33:48.047Z,100441.44
2022-10-15T15:36:20.931Z,100447.00
2022-10-15T15:38:51.575Z,100439.56
2022-10-15T15:41:22.194Z,100445.94
2022-10-15T15:43:49.862Z,100434.00
2022-10-15T15:46:17.260Z,100435.41
2022-10-15T15:48:44.734Z,100445.19
2022-10-15T15:51:26.061Z,100433.63
2022-10-15T15:53:53.360Z,100441.69
2022-10-15T15:56:20.570Z,100450.22
2022-10-15T15:58:50.104Z,100445.50
2022-10-15T16:01:20.914Z,100443.81
2022-10-15T16:03:47.928Z,100449.97
2022-10-15T16:06:14.913Z,100453.97
2022-10-15T16:08:41.999Z,100459.59
2022-10-15T16:11:08.903Z,100458.41
2022-10-15T16:13:36.297Z,100460.00
2022-10-15T16:16:03.845Z,100463.41
2022-10-15T16:18:31.219Z,100466.59
2022-10-15T16:20:58.058Z,100476.22
2022-10-15T16:23:25.033Z,100473.41
2022-10-15T16:25:55.044Z,100470.66
2022-10-15T16:28:22.134Z,100478.53
2022-10-15T16:30:49.528Z,100483.03
2022-10-15T16:33:16.353Z,100471.84
2022-10-15T16:35:43.273Z,100482.75
2022-10-15T16:38:10.155Z,100480.22
2022-10-15T16:40:38.373Z,100471.91
2022-10-15T16:43:05.979Z,100478.28
2022-10-15T16:45:33.877Z,100490.09
2022-10-15T16:48:00.694Z,100489.94
2022-10-15T16:50:27.666Z,100494.09
2022-10-15T16:52:54.494Z,100497.72
2022-10-15T16:55:25.242Z,100493.53
2022-10-15T16:57:58.432Z,100511.22
2022-10-15T17:00:25.686Z,100499.72
2022-10-15T17:02:56.442Z,100513.56
2022-10-15T17:05:23.321Z,100514.19
2022-10-15T17:07:50.388Z,100511.03
2022-10-15T17:10:17.369Z,100522.72
2022-10-15T17:12:44.793Z,100527.38
2022-10-15T17:15:12.213Z,100525.81
2022-10-15T17:17:39.536Z,100522.09
2022-10-15T17:20:09.061Z,100533.22
2022-10-15T17:22:36.407Z,100538.16
2022-10-15T17:25:03.862Z,100532.81
2022-10-15T17:27:30.749Z,100530.72
2022-10-15T17:29:59.937Z,100533.19
2022-10-15T17:32:28.608Z,100541.88
2022-10-15T17:34:58.182Z,100536.53
2022-10-15T17:37:27.538Z,100553.31
2022-10-15T17:39:58.111Z,100552.50
2022-10-15T17:42:25.796Z,100539.06
2022-10-15T17:44:57.636Z,100547.19
2022-10-15T17:47:24.885Z,100544.22
2022-10-15T17:49:51.801Z,100541.84
2022-10-15T17:52:18.762Z,100556.72
2022-10-15T17:54:46.005Z,100548.13
2022-10-15T17:57:12.866Z,100556.53
2022-10-15T17:59:40.229Z,100539.50
2022-10-15T18:02:07.201Z,100545.72
2022-10-15T18:04:39.739Z,100547.91
2022-10-15T18:07:06.777Z,100544.94
2022-10-15T18:09:33.939Z,100552.00
2022-10-15T18:12:02.683Z,100539.56
2022-10-15T18:14:31.831Z,100549.31
2022-10-15T18:16:58.783Z,100561.44
2022-10-15T18:19:26.962Z,100550.94
2022-10-15T18:21:55.335Z,100556.09
2022-10-15T18:24:23.540Z,100558.78
2022-10-15T18:26:51.365Z,100543.16
2022-10-15T18:29:19.401Z,100558.28
2022-10-15T18:31:47.256Z,100559.88
2022-10-15T18:34:14.502Z,100556.91
2022-10-15T18:36:43.325Z,100563.94
2022-10-15T18:39:10.866Z,100555.03
2022-10-15T18:41:40.141Z,100564.72
2022-10-15T18:44:15.766Z,100568.25
2022-10-15T18:46:45.019Z,100561.00
2022-10-15T18:49:15.138Z,100577.16
2022-10-15T18:51:43.113Z,100573.13
2022-10-15T18:54:10.774Z,100582.03
2022-10-15T18:56:38.321Z,100585.81
2022-10-15T18:59:05.715Z,100582.81
2022-10-15T19:01:38.976Z,100572.81
2022-10-15T19:04:09.845Z,100575.75
2022-10-15T19:06:41.805Z,100573.59
2022-10-15T19:09:13.750Z,100574.94
2022-10-15T19:11:43.297Z,100571.16
2022-10-15T19:14:10.449Z,100563.88
2022-10-15T19:16:37.439Z,100559.00
2022-10-15T19:19:15.781Z,100560.38
2022-10-15T19:21:44.153Z,100561.19
2022-10-15T19:24:11.965Z,100561.44
2022-10-15T19:26:39.691Z,100576.56
2022-10-15T19:29:06.545Z,100567.69
2022-10-15T19:31:37.498Z,100580.09
2022-10-15T19:34:04.856Z,100567.19
2022-10-15T19:36:35.850Z,100577.69
2022-10-15T19:39:11.058Z,100578.78
2022-10-15T19:41:40.002Z,100583.63
2022-10-15T19:44:08.230Z,100579.56
2022-10-15T19:46:38.761Z,100577.41
2022-10-15T19:49:12.359Z,100574.69
2022-10-15T19:51:39.590Z,100582.25
2022-10-15T19:54:06.749Z,100571.97
2022-10-15T19:56:34.256Z,100565.75
2022-10-15T19:59:04.057Z,100565.44
2022-10-15T20:01:31.963Z,100568.13
2022-10-15T20:04:03.246Z,100573.25
2022-10-15T20:06:35.635Z,100572.72
2022-10-15T20:09:03.099Z,100577.31
2022-10-15T20:11:30.477Z,100572.97
2022-10-15T20:13:59.854Z,100590.75
2022-10-15T20:16:30.027Z,100596.69
2022-10-15T20:19:02.971Z,100610.97
2022-10-15T20:21:30.262Z,100610.69
2022-10-15T20:23:57.065Z,100608.00
2022-10-15T20:26:24.128Z,100621.19
2022-10-15T20:28:51.316Z,100605.78
2022-10-15T20:31:28.404Z,100619.25
2022-10-15T20:33:55.688Z,100617.38
2022-10-15T20:36:24.276Z,100607.91
2022-10-15T20:38:51.997Z,100601.16
2022-10-15T20:41:20.690Z,100612.50
2022-10-15T20:43:54.903Z,100626.00
2022-10-15T20:46:33.645Z,100616.84
2022-10-15T20:49:08.582Z,100625.22
2022-10-15T20:51:39.645Z,100636.06
2022-10-15T20:54:07.362Z,100628.25
2022-10-15T20:56:34.566Z,100629.63
2022-10-15T20:59:01.523Z,100636.38
2022-10-15T21:01:28.536Z,100644.19
2022-10-15T21:03:55.717Z,100635.56
2022-10-15T21:06:22.794Z,100639.09
2022-10-15T21:08:50.036Z,100645.81
2022-10-15T21:11:17.031Z,100637.72
2022-10-15T21:13:44.706Z,100642.03
2022-10-15T21:16:11.682Z,100654.44
2022-10-15T21:18:39.009Z,100657.66
2022-10-15T21:21:09.528Z,100651.44
2022-10-15T21:23:38.922Z,100657.66
2022-10-15T21:26:07.975Z,100660.13
2022-10-15T21:28:35.931Z,100656.59
2022-10-15T21:31:11.404Z,100646.34
2022-10-15T21:33:39.626Z,100652.84
2022-10-15T21:36:26.633Z,100650.94
2022-10-15T21:38:59.767Z,100655.00
2022-10-15T21:41:31.168Z,100644.47
2022-10-15T21:44:00.254Z,100630.47
2022-10-15T21:46:28.147Z,100649.91
2022-10-15T21:48:55.217Z,100659.91
2022-10-15T21:51:25.905Z,100656.69
2022-10-15T21:53:54.239Z,100659.94
2022-10-15T21:56:22.275Z,100653.72
2022-10-15T21:58:49.957Z,100652.69
2022-10-15T22:01:21.625Z,100665.09
2022-10-15T22:03:50.975Z,100671.31
2022-10-15T22:09:11.459Z,100678.34
2022-10-15T22:11:41.019Z,100684.84
2022-10-15T22:14:11.641Z,100686.72
2022-10-15T22:16:40.805Z,100687.00
2022-10-15T22:19:11.189Z,100682.69
2022-10-15T22:21:39.050Z,100681.34
2022-10-15T22:24:17.310Z,100686.19
2022-10-15T22:26:53.576Z,100688.91
2022-10-15T22:29:33.045Z,100695.38
2022-10-15T22:32:03.231Z,100681.88
2022-10-15T22:34:30.554Z,100687.03
2022-10-15T22:36:57.541Z,100680.25
2022-10-15T22:39:24.820Z,100678.91
2022-10-15T22:41:51.665Z,100668.94
2022-10-15T22:44:21.280Z,100673.50
2022-10-15T22:46:51.550Z,100668.66
2022-10-15T22:49:21.597Z,100677.03
2022-10-15T22:51:50.722Z,100676.22
2022-10-15T22:54:19.958Z,100687.31
2022-10-15T22:56:46.915Z,100682.47
2022-10-15T22:59:14.790Z,100691.38
2022-10-15T23:01:42.026Z,100683.00
2022-10-15T23:04:10.655Z,100693.00
2022-10-15T23:06:37.876Z,100688.44
2022-10-15T23:09:07.017Z,100692.75
2022-10-15T23:11:38.904Z,100693.84
2022-10-15T23:14:15.007Z,100694.66
2022-10-15T23:16:45.810Z,100699.78
2022-10-15T23:19:17.497Z,100696.53
2022-10-15T23:22:09.541Z,100698.97
2022-10-15T23:24:36.410Z,100701.94
2022-10-15T23:27:03.379Z,100711.13
2022-10-15T23:29:30.467Z,100709.78
2022-10-15T23:31:57.506Z,100707.09
2022-10-15T23:34:26.367Z,100714.66
2022-10-15T23:36:53.448Z,100711.94
2022-10-15T23:39:24.443Z,100717.88
2022-10-15T23:41:51.835Z,100714.91
2022-10-15T23:44:19.850Z,100715.69
2022-10-15T23:46:47.363Z,100717.31
2022-10-15T23:49:14.324Z,100722.72
2022-10-15T23:51:41.476Z,100718.38
2022-10-15T23:54:18.091Z,100717.56
2022-10-15T23:56:46.881Z,100717.56
2022-10-15T23:59:14.691Z,100722.13
